sensor_id;sensor_type;location;lat;lon;timestamp;pressure;altitude;pressure_sealevel;temperature;humidity
43503;BME280;29098;48.184;16.298;2023-05-02T00:01:39;99276.88;;;11.70;95.81
43503;BME280;29098;48.184;16.298;2023-05-02T00:04:06;99296.31;;;11.84;95.81
43503;BME280;29098;48.184;16.298;2023-05-02T00:06:31;99286.25;;;11.72;96.12
43503;BME280;29098;48.184;16.298;2023-05-02T00:08:57;99285.91;;;11.75;95.49
43503;BME280;29098;48.184;16.298;2023-05-02T00:11:23;99281.28;;;11.62;95.67
43503;BME280;29098;48.184;16.298;2023-05-02T00:13:49;99272.72;;;11.54;95.79
43503;BME280;29098;48.184;16.298;2023-05-02T00:16:15;99294.94;;;11.66;95.54
43503;BME280;29098;48.184;16.298;2023-05-02T00:18:40;99289.31;;;11.47;96.28
43503;BME280;29098;48.184;16.298;2023-05-02T00:21:06;99285.03;;;11.46;97.03
43503;BME280;29098;48.184;16.298;2023-05-02T00:23:32;99278.78;;;11.54;96.74
43503;BME280;29098;48.184;16.298;2023-05-02T00:25:58;99263.78;;;11.55;95.47
43503;BME280;29098;48.184;16.298;2023-05-02T00:28:24;99276.59;;;11.58;95.37
43503;BME280;29098;48.184;16.298;2023-05-02T00:30:51;99295.94;;;11.65;95.23
43503;BME280;29098;48.184;16.298;2023-05-02T00:33:17;99279.75;;;11.68;95.32
43503;BME280;29098;48.184;16.298;2023-05-02T00:35:43;99254.09;;;11.40;95.71
43503;BME280;29098;48.184;16.298;2023-05-02T00:38:09;99291.38;;;11.52;95.67
43503;BME280;29098;48.184;16.298;2023-05-02T00:40:49;99278.56;;;11.49;96.08
43503;BME280;29098;48.184;16.298;2023-05-02T00:43:18;99266.59;;;11.53;94.63
43503;BME280;29098;48.184;16.298;2023-05-02T00:45:44;99265.38;;;11.49;95.45
43503;BME280;29098;48.184;16.298;2023-05-02T00:48:13;99264.19;;;11.51;95.61
43503;BME280;29098;48.184;16.298;2023-05-02T00:50:40;99282.88;;;11.57;95.86
43503;BME280;29098;48.184;16.298;2023-05-02T00:53:10;99272.75;;;11.60;94.30
43503;BME280;29098;48.184;16.298;2023-05-02T00:55:35;99301.88;;;11.67;94.43
43503;BME280;29098;48.184;16.298;2023-05-02T00:58:04;99290.94;;;11.48;95.04
43503;BME280;29098;48.184;16.298;2023-05-02T01:00:42;99267.91;;;11.42;94.96
43503;BME280;29098;48.184;16.298;2023-05-02T01:03:38;99279.19;;;11.51;95.08
43503;BME280;29098;48.184;16.298;2023-05-02T01:09:38;99296.06;;;11.78;94.19
43503;BME280;29098;48.184;16.298;2023-05-02T01:12:34;99301.25;;;12.15;92.08
43503;BME280;29098;48.184;16.298;2023-05-02T01:15:06;99295.94;;;12.15;91.48
43503;BME280;29098;48.184;16.298;2023-05-02T01:17:33;99317.09;;;12.15;93.21
43503;BME280;29098;48.184;16.298;2023-05-02T01:20:07;99331.94;;;12.45;91.33
43503;BME280;29098;48.184;16.298;2023-05-02T01:22:37;99295.94;;;12.44;90.98
43503;BME280;29098;48.184;16.298;2023-05-02T01:25:25;99291.03;;;12.41;91.47
43503;BME280;29098;48.184;16.298;2023-05-02T01:30:28;99326.94;;;12.64;92.29
43503;BME280;29098;48.184;16.298;2023-05-02T01:32:57;99329.19;;;12.67;92.21
43503;BME280;29098;48.184;16.298;2023-05-02T01:35:25;99297.00;;;12.56;91.83
43503;BME280;29098;48.184;16.298;2023-05-02T01:37:52;99294.97;;;12.58;92.72
43503;BME280;29098;48.184;16.298;2023-05-02T01:40:19;99328.56;;;12.65;93.18
43503;BME280;29098;48.184;16.298;2023-05-02T01:42:49;99294.44;;;12.70;92.74
43503;BME280;29098;48.184;16.298;2023-05-02T01:45:16;99311.78;;;12.86;91.67
43503;BME280;29098;48.184;16.298;2023-05-02T01:47:45;99299.63;;;12.92;91.40
43503;BME280;29098;48.184;16.298;2023-05-02T01:50:16;99293.06;;;12.87;91.08
43503;BME280;29098;48.184;16.298;2023-05-02T01:52:43;99313.03;;;12.97;92.38
43503;BME280;29098;48.184;16.298;2023-05-02T01:55:12;99307.97;;;13.02;91.42
43503;BME280;29098;48.184;16.298;2023-05-02T01:57:42;99310.63;;;12.95;91.28
43503;BME280;29098;48.184;16.298;2023-05-02T02:00:10;99326.13;;;13.12;90.90
43503;BME280;29098;48.184;16.298;2023-05-02T02:02:38;99324.69;;;13.09;91.71
43503;BME280;29098;48.184;16.298;2023-05-02T02:05:06;99336.31;;;13.08;91.51
43503;BME280;29098;48.184;16.298;2023-05-02T02:07:33;99312.66;;;13.00;91.43
43503;BME280;29098;48.184;16.298;2023-05-02T02:09:59;99336.72;;;13.12;91.48
43503;BME280;29098;48.184;16.298;2023-05-02T02:12:27;99322.47;;;13.06;91.40
43503;BME280;29098;48.184;16.298;2023-05-02T02:14:59;99344.06;;;13.17;91.39
43503;BME280;29098;48.184;16.298;2023-05-02T02:17:29;99331.25;;;13.13;90.99
43503;BME280;29098;48.184;16.298;2023-05-02T02:20:00;99342.81;;;13.12;91.02
43503;BME280;29098;48.184;16.298;2023-05-02T02:22:28;99344.25;;;13.08;91.78
43503;BME280;29098;48.184;16.298;2023-05-02T02:24:56;99317.34;;;12.98;92.91
43503;BME280;29098;48.184;16.298;2023-05-02T02:27:23;99326.91;;;12.99;92.87
43503;BME280;29098;48.184;16.298;2023-05-02T02:29:49;99306.91;;;12.90;92.53
43503;BME280;29098;48.184;16.298;2023-05-02T02:32:15;99305.69;;;12.92;91.31
43503;BME280;29098;48.184;16.298;2023-05-02T02:34:40;99316.72;;;12.96;89.15
43503;BME280;29098;48.184;16.298;2023-05-02T02:37:13;99327.34;;;13.09;88.58
43503;BME280;29098;48.184;16.298;2023-05-02T02:45:37;99321.06;;;13.17;87.12
43503;BME280;29098;48.184;16.298;2023-05-02T02:51:09;99327.75;;;13.06;87.17
43503;BME280;29098;48.184;16.298;2023-05-02T02:56:41;99333.03;;;13.06;87.54
43503;BME280;29098;48.184;16.298;2023-05-02T02:59:22;99344.47;;;13.20;86.54
43503;BME280;29098;48.184;16.298;2023-05-02T03:01:59;99346.28;;;13.06;86.49
43503;BME280;29098;48.184;16.298;2023-05-02T03:04:30;99309.19;;;12.93;87.00
43503;BME280;29098;48.184;16.298;2023-05-02T03:06:57;99343.00;;;13.04;87.12
43503;BME280;29098;48.184;16.298;2023-05-02T03:09:22;99343.84;;;13.11;86.81
43503;BME280;29098;48.184;16.298;2023-05-02T03:11:48;99327.53;;;13.08;86.47
43503;BME280;29098;48.184;16.298;2023-05-02T03:14:13;99319.41;;;13.02;86.53
43503;BME280;29098;48.184;16.298;2023-05-02T03:16:40;99325.28;;;12.98;86.94
43503;BME280;29098;48.184;16.298;2023-05-02T03:19:06;99337.03;;;12.88;86.54
43503;BME280;29098;48.184;16.298;2023-05-02T03:21:33;99330.97;;;13.01;86.58
43503;BME280;29098;48.184;16.298;2023-05-02T03:23:59;99360.53;;;13.12;86.31
43503;BME280;29098;48.184;16.298;2023-05-02T03:26:25;99365.59;;;13.00;86.52
43503;BME280;29098;48.184;16.298;2023-05-02T03:28:51;99351.75;;;13.05;86.47
43503;BME280;29098;48.184;16.298;2023-05-02T03:31:17;99373.53;;;13.00;86.45
43503;BME280;29098;48.184;16.298;2023-05-02T03:33:43;99340.66;;;12.81;87.01
43503;BME280;29098;48.184;16.298;2023-05-02T03:36:09;99342.31;;;12.82;86.98
43503;BME280;29098;48.184;16.298;2023-05-02T03:38:35;99366.09;;;12.82;87.01
43503;BME280;29098;48.184;16.298;2023-05-02T03:41:01;99360.22;;;12.86;86.67
43503;BME280;29098;48.184;16.298;2023-05-02T03:43:27;99369.25;;;12.99;86.91
43503;BME280;29098;48.184;16.298;2023-05-02T03:45:53;99343.53;;;12.86;87.24
43503;BME280;29098;48.184;16.298;2023-05-02T03:48:18;99374.91;;;12.96;86.60
43503;BME280;29098;48.184;16.298;2023-05-02T03:50:44;99365.44;;;12.73;87.71
43503;BME280;29098;48.184;16.298;2023-05-02T03:53:09;99368.78;;;12.88;87.36
43503;BME280;29098;48.184;16.298;2023-05-02T03:55:39;99386.34;;;12.96;87.14
43503;BME280;29098;48.184;16.298;2023-05-02T03:58:06;99372.88;;;12.91;87.57
43503;BME280;29098;48.184;16.298;2023-05-02T04:00:31;99362.63;;;12.81;87.40
43503;BME280;29098;48.184;16.298;2023-05-02T04:03:00;99369.19;;;12.85;87.03
43503;BME280;29098;48.184;16.298;2023-05-02T04:05:25;99408.13;;;12.98;88.32
43503;BME280;29098;48.184;16.298;2023-05-02T04:07:51;99377.34;;;12.91;87.47
43503;BME280;29098;48.184;16.298;2023-05-02T04:10:17;99371.59;;;12.80;87.83
43503;BME280;29098;48.184;16.298;2023-05-02T04:12:43;99381.38;;;12.86;87.71
43503;BME280;29098;48.184;16.298;2023-05-02T04:15:09;99417.25;;;12.96;88.00
43503;BME280;29098;48.184;16.298;2023-05-02T04:17:35;99417.91;;;12.98;88.80
43503;BME280;29098;48.184;16.298;2023-05-02T04:20:01;99387.09;;;12.90;88.10
43503;BME280;29098;48.184;16.298;2023-05-02T04:22:27;99390.78;;;12.89;89.10
43503;BME280;29098;48.184;16.298;2023-05-02T04:24:53;99427.50;;;13.06;88.39
43503;BME280;29098;48.184;16.298;2023-05-02T04:27:18;99422.38;;;13.04;88.34
43503;BME280;29098;48.184;16.298;2023-05-02T04:29:47;99417.91;;;12.98;88.83
43503;BME280;29098;48.184;16.298;2023-05-02T04:32:13;99427.09;;;13.09;88.03
43503;BME280;29098;48.184;16.298;2023-05-02T04:34:39;99401.00;;;12.99;88.22
43503;BME280;29098;48.184;16.298;2023-05-02T04:37:04;99436.53;;;13.18;87.76
43503;BME280;29098;48.184;16.298;2023-05-02T04:39:30;99436.53;;;13.25;87.55
43503;BME280;29098;48.184;16.298;2023-05-02T04:41:59;99453.19;;;13.19;88.27
43503;BME280;29098;48.184;16.298;2023-05-02T04:44:25;99408.00;;;13.13;87.00
43503;BME280;29098;48.184;16.298;2023-05-02T04:46:51;99432.81;;;13.12;87.40
43503;BME280;29098;48.184;16.298;2023-05-02T04:49:17;99420.59;;;13.11;87.85
43503;BME280;29098;48.184;16.298;2023-05-02T04:51:43;99453.59;;;13.15;87.40
43503;BME280;29098;48.184;16.298;2023-05-02T04:54:09;99426.13;;;13.17;87.33
43503;BME280;29098;48.184;16.298;2023-05-02T04:56:35;99436.72;;;13.23;87.26
43503;BME280;29098;48.184;16.298;2023-05-02T04:59:00;99459.78;;;13.29;87.90
43503;BME280;29098;48.184;16.298;2023-05-02T05:01:26;99456.94;;;13.38;87.36
43503;BME280;29098;48.184;16.298;2023-05-02T05:03:54;99409.44;;;13.23;87.08
43503;BME280;29098;48.184;16.298;2023-05-02T05:06:20;99468.47;;;13.52;87.25
43503;BME280;29098;48.184;16.298;2023-05-02T05:08:47;99439.34;;;13.52;87.05
43503;BME280;29098;48.184;16.298;2023-05-02T05:11:13;99469.75;;;13.69;86.13
43503;BME280;29098;48.184;16.298;2023-05-02T05:13:40;99459.75;;;13.72;86.42
43503;BME280;29098;48.184;16.298;2023-05-02T05:16:06;99476.06;;;13.82;85.54
43503;BME280;29098;48.184;16.298;2023-05-02T05:18:32;99434.88;;;13.73;85.96
43503;BME280;29098;48.184;16.298;2023-05-02T05:21:05;99452.22;;;13.75;84.65
43503;BME280;29098;48.184;16.298;2023-05-02T05:23:30;99431.63;;;13.70;84.66
43503;BME280;29098;48.184;16.298;2023-05-02T05:25:56;99456.53;;;13.83;84.35
43503;BME280;29098;48.184;16.298;2023-05-02T05:28:22;99479.97;;;13.86;84.81
43503;BME280;29098;48.184;16.298;2023-05-02T05:30:51;99473.47;;;13.95;85.02
43503;BME280;29098;48.184;16.298;2023-05-02T05:33:16;99461.19;;;13.81;84.89
43503;BME280;29098;48.184;16.298;2023-05-02T05:35:42;99485.28;;;13.93;85.53
43503;BME280;29098;48.184;16.298;2023-05-02T05:38:08;99479.38;;;13.91;85.77
43503;BME280;29098;48.184;16.298;2023-05-02T05:40:33;99474.69;;;13.93;85.84
43503;BME280;29098;48.184;16.298;2023-05-02T05:42:59;99469.78;;;13.96;85.12
43503;BME280;29098;48.184;16.298;2023-05-02T05:45:24;99456.72;;;13.88;85.85
43503;BME280;29098;48.184;16.298;2023-05-02T05:47:53;99434.28;;;13.77;85.65
43503;BME280;29098;48.184;16.298;2023-05-02T05:50:18;99470.25;;;14.07;85.09
43503;BME280;29098;48.184;16.298;2023-05-02T05:52:43;99493.28;;;14.27;84.80
43503;BME280;29098;48.184;16.298;2023-05-02T05:55:09;99482.50;;;14.21;84.14
43503;BME280;29098;48.184;16.298;2023-05-02T05:57:35;99494.53;;;14.31;83.85
43503;BME280;29098;48.184;16.298;2023-05-02T06:00:00;99506.38;;;14.21;83.79
43503;BME280;29098;48.184;16.298;2023-05-02T06:02:26;99474.97;;;14.25;83.49
43503;BME280;29098;48.184;16.298;2023-05-02T06:04:51;99506.19;;;14.63;82.35
43503;BME280;29098;48.184;16.298;2023-05-02T06:07:17;99477.81;;;14.44;82.71
43503;BME280;29098;48.184;16.298;2023-05-02T06:09:43;99506.38;;;14.42;82.88
43503;BME280;29098;48.184;16.298;2023-05-02T06:12:08;99517.78;;;14.42;83.92
43503;BME280;29098;48.184;16.298;2023-05-02T06:14:34;99500.47;;;14.46;82.50
43503;BME280;29098;48.184;16.298;2023-05-02T06:16:59;99499.03;;;14.64;82.39
43503;BME280;29098;48.184;16.298;2023-05-02T06:19:25;99487.41;;;14.65;81.72
43503;BME280;29098;48.184;16.298;2023-05-02T06:21:54;99509.06;;;14.82;81.66
43503;BME280;29098;48.184;16.298;2023-05-02T06:24:19;99499.66;;;14.79;80.80
43503;BME280;29098;48.184;16.298;2023-05-02T06:26:45;99536.81;;;14.79;79.42
43503;BME280;29098;48.184;16.298;2023-05-02T06:29:10;99522.31;;;14.82;80.58
43503;BME280;29098;48.184;16.298;2023-05-02T06:31:36;99529.47;;;14.68;80.28
43503;BME280;29098;48.184;16.298;2023-05-02T06:34:02;99511.91;;;14.81;80.44
43503;BME280;29098;48.184;16.298;2023-05-02T06:36:28;99508.84;;;14.77;80.05
43503;BME280;29098;48.184;16.298;2023-05-02T06:38:54;99525.00;;;14.75;80.54
43503;BME280;29098;48.184;16.298;2023-05-02T06:41:20;99546.19;;;14.89;80.19
43503;BME280;29098;48.184;16.298;2023-05-02T06:43:46;99539.25;;;14.88;80.28
43503;BME280;29098;48.184;16.298;2023-05-02T06:46:11;99551.13;;;14.78;80.24
43503;BME280;29098;48.184;16.298;2023-05-02T06:48:37;99515.16;;;14.69;79.82
43503;BME280;29098;48.184;16.298;2023-05-02T06:51:02;99526.00;;;14.74;80.09
43503;BME280;29098;48.184;16.298;2023-05-02T06:53:29;99525.19;;;14.81;79.31
43503;BME280;29098;48.184;16.298;2023-05-02T06:55:55;99542.13;;;14.93;79.00
43503;BME280;29098;48.184;16.298;2023-05-02T06:58:21;99555.19;;;14.74;78.81
43503;BME280;29098;48.184;16.298;2023-05-02T07:00:47;99522.91;;;14.57;80.66
43503;BME280;29098;48.184;16.298;2023-05-02T07:03:13;99526.19;;;14.59;80.02
43503;BME280;29098;48.184;16.298;2023-05-02T07:05:39;99547.22;;;14.74;79.09
43503;BME280;29098;48.184;16.298;2023-05-02T07:08:05;99529.06;;;14.85;78.26
43503;BME280;29098;48.184;16.298;2023-05-02T07:10:31;99522.91;;;14.71;78.03
43503;BME280;29098;48.184;16.298;2023-05-02T07:12:57;99539.47;;;14.86;77.97
43503;BME280;29098;48.184;16.298;2023-05-02T07:15:22;99561.53;;;15.00;77.18
43503;BME280;29098;48.184;16.298;2023-05-02T07:17:50;99538.44;;;14.94;77.47
43503;BME280;29098;48.184;16.298;2023-05-02T07:20:16;99556.41;;;15.12;77.19
43503;BME280;29098;48.184;16.298;2023-05-02T07:22:41;99567.22;;;15.17;76.55
43503;BME280;29098;48.184;16.298;2023-05-02T07:25:07;99552.72;;;15.13;76.25
43503;BME280;29098;48.184;16.298;2023-05-02T07:27:33;99551.06;;;15.19;76.04
43503;BME280;29098;48.184;16.298;2023-05-02T07:29:59;99562.16;;;14.96;75.47
43503;BME280;29098;48.184;16.298;2023-05-02T07:32:25;99537.63;;;15.00;75.96
43503;BME280;29098;48.184;16.298;2023-05-02T07:34:51;99538.00;;;15.11;76.04
43503;BME280;29098;48.184;16.298;2023-05-02T07:37:21;99561.28;;;15.29;75.32
43503;BME280;29098;48.184;16.298;2023-05-02T07:39:47;99587.84;;;15.29;74.91
43503;BME280;29098;48.184;16.298;2023-05-02T07:42:12;99588.44;;;15.31;75.35
43503;BME280;29098;48.184;16.298;2023-05-02T07:44:38;99576.56;;;15.40;74.96
43503;BME280;29098;48.184;16.298;2023-05-02T07:47:03;99587.41;;;15.52;74.72
43503;BME280;29098;48.184;16.298;2023-05-02T07:49:29;99559.22;;;15.38;73.25
43503;BME280;29098;48.184;16.298;2023-05-02T07:51:55;99575.59;;;15.28;73.11
43503;BME280;29098;48.184;16.298;2023-05-02T07:54:21;99603.75;;;15.42;74.02
43503;BME280;29098;48.184;16.298;2023-05-02T07:56:49;99595.97;;;15.41;74.42
43503;BME280;29098;48.184;16.298;2023-05-02T07:59:14;99593.16;;;15.22;73.75
43503;BME280;29098;48.184;16.298;2023-05-02T08:01:40;99614.78;;;15.39;74.30
43503;BME280;29098;48.184;16.298;2023-05-02T08:04:06;99615.19;;;15.43;73.77
43503;BME280;29098;48.184;16.298;2023-05-02T08:06:34;99609.88;;;15.43;73.86
43503;BME280;29098;48.184;16.298;2023-05-02T08:09:01;99615.00;;;15.24;74.82
43503;BME280;29098;48.184;16.298;2023-05-02T08:11:26;99594.78;;;15.23;75.20
43503;BME280;29098;48.184;16.298;2023-05-02T08:13:52;99606.81;;;15.39;73.99
43503;BME280;29098;48.184;16.298;2023-05-02T08:16:18;99606.22;;;15.30;74.79
43503;BME280;29098;48.184;16.298;2023-05-02T08:18:44;99610.72;;;15.30;74.45
43503;BME280;29098;48.184;16.298;2023-05-02T08:21:10;99626.22;;;15.40;74.80
43503;BME280;29098;48.184;16.298;2023-05-02T08:23:36;99618.22;;;15.60;75.27
43503;BME280;29098;48.184;16.298;2023-05-02T08:26:02;99627.44;;;15.64;74.58
43503;BME280;29098;48.184;16.298;2023-05-02T08:28:28;99618.41;;;15.72;74.80
43503;BME280;29098;48.184;16.298;2023-05-02T08:30:55;99616.81;;;15.51;74.16
43503;BME280;29098;48.184;16.298;2023-05-02T08:33:20;99601.88;;;15.56;74.21
43503;BME280;29098;48.184;16.298;2023-05-02T08:35:47;99602.91;;;15.55;73.88
43503;BME280;29098;48.184;16.298;2023-05-02T08:38:12;99601.03;;;15.69;73.68
43503;BME280;29098;48.184;16.298;2023-05-02T08:40:38;99623.34;;;15.61;74.19
43503;BME280;29098;48.184;16.298;2023-05-02T08:43:04;99612.28;;;15.65;74.84
43503;BME280;29098;48.184;16.298;2023-05-02T08:45:39;99618.75;;;15.82;73.11
43503;BME280;29098;48.184;16.298;2023-05-02T08:48:06;99603.56;;;15.37;73.42
43503;BME280;29098;48.184;16.298;2023-05-02T08:50:44;99614.13;;;15.57;73.99
43503;BME280;29098;48.184;16.298;2023-05-02T08:53:11;99635.56;;;15.76;73.53
43503;BME280;29098;48.184;16.298;2023-05-02T08:55:39;99638.25;;;15.63;73.53
43503;BME280;29098;48.184;16.298;2023-05-02T08:58:09;99611.44;;;15.71;73.09
43503;BME280;29098;48.184;16.298;2023-05-02T09:00:39;99642.88;;;15.87;73.49
43503;BME280;29098;48.184;16.298;2023-05-02T09:03:31;99633.91;;;15.95;74.09
43503;BME280;29098;48.184;16.298;2023-05-02T09:08:37;99640.47;;;15.93;71.45
43503;BME280;29098;48.184;16.298;2023-05-02T09:11:05;99645.34;;;15.96;71.85
43503;BME280;29098;48.184;16.298;2023-05-02T09:18:46;99622.88;;;15.78;72.30
43503;BME280;29098;48.184;16.298;2023-05-02T09:21:16;99596.59;;;15.43;72.50
43503;BME280;29098;48.184;16.298;2023-05-02T09:23:53;99610.41;;;15.72;73.17
43503;BME280;29098;48.184;16.298;2023-05-02T09:28:52;99620.44;;;15.63;73.25
43503;BME280;29098;48.184;16.298;2023-05-02T09:31:22;99626.97;;;15.74;72.39
43503;BME280;29098;48.184;16.298;2023-05-02T09:33:50;99635.16;;;15.66;73.12
43503;BME280;29098;48.184;16.298;2023-05-02T09:36:18;99599.38;;;15.75;72.87
43503;BME280;29098;48.184;16.298;2023-05-02T09:38:47;99605.47;;;15.82;72.00
43503;BME280;29098;48.184;16.298;2023-05-02T09:41:13;99622.44;;;15.95;71.49
43503;BME280;29098;48.184;16.298;2023-05-02T09:43:39;99629.16;;;16.11;71.01
43503;BME280;29098;48.184;16.298;2023-05-02T09:46:06;99637.31;;;16.09;70.26
43503;BME280;29098;48.184;16.298;2023-05-02T09:48:52;99635.84;;;16.13;70.86
43503;BME280;29098;48.184;16.298;2023-05-02T09:51:17;99646.91;;;16.17;70.85
43503;BME280;29098;48.184;16.298;2023-05-02T09:53:44;99655.94;;;16.09;71.61
43503;BME280;29098;48.184;16.298;2023-05-02T09:56:10;99662.88;;;16.10;71.87
43503;BME280;29098;48.184;16.298;2023-05-02T09:58:36;99647.59;;;15.99;71.97
43503;BME280;29098;48.184;16.298;2023-05-02T10:01:02;99652.69;;;16.07;73.09
43503;BME280;29098;48.184;16.298;2023-05-02T10:03:28;99637.53;;;16.14;72.41
43503;BME280;29098;48.184;16.298;2023-05-02T10:05:55;99621.72;;;16.20;71.66
43503;BME280;29098;48.184;16.298;2023-05-02T10:08:23;99629.59;;;16.01;71.31
43503;BME280;29098;48.184;16.298;2023-05-02T10:10:54;99654.41;;;16.34;71.13
43503;BME280;29098;48.184;16.298;2023-05-02T10:13:21;99665.44;;;16.37;71.34
43503;BME280;29098;48.184;16.298;2023-05-02T10:15:53;99647.44;;;16.33;71.72
43503;BME280;29098;48.184;16.298;2023-05-02T10:18:26;99648.81;;;16.49;71.28
43503;BME280;29098;48.184;16.298;2023-05-02T10:20:57;99655.91;;;16.16;71.65
43503;BME280;29098;48.184;16.298;2023-05-02T10:23:28;99661.84;;;16.18;71.88
43503;BME280;29098;48.184;16.298;2023-05-02T10:25:54;99628.59;;;15.82;72.57
43503;BME280;29098;48.184;16.298;2023-05-02T10:28:21;99686.47;;;16.00;72.37
43503;BME280;29098;48.184;16.298;2023-05-02T10:30:48;99651.25;;;15.98;72.58
43503;BME280;29098;48.184;16.298;2023-05-02T10:33:15;99654.72;;;16.05;72.30
43503;BME280;29098;48.184;16.298;2023-05-02T10:35:43;99631.03;;;15.97;71.85
43503;BME280;29098;48.184;16.298;2023-05-02T10:38:16;99669.47;;;15.87;71.91
43503;BME280;29098;48.184;16.298;2023-05-02T10:40:49;99652.50;;;15.88;72.45
43503;BME280;29098;48.184;16.298;2023-05-02T10:43:21;99667.63;;;15.95;74.52
43503;BME280;29098;48.184;16.298;2023-05-02T10:45:48;99685.66;;;15.93;74.58
43503;BME280;29098;48.184;16.298;2023-05-02T10:48:21;99686.84;;;15.97;75.52
43503;BME280;29098;48.184;16.298;2023-05-02T10:50:51;99665.59;;;15.77;76.21
43503;BME280;29098;48.184;16.298;2023-05-02T10:53:30;99676.06;;;15.71;75.48
43503;BME280;29098;48.184;16.298;2023-05-02T10:56:18;99679.53;;;15.58;77.07
43503;BME280;29098;48.184;16.298;2023-05-02T10:58:52;99679.16;;;15.34;77.73
43503;BME280;29098;48.184;16.298;2023-05-02T11:03:59;99687.13;;;15.34;78.33
43503;BME280;29098;48.184;16.298;2023-05-02T11:06:27;99681.78;;;15.21;79.54
43503;BME280;29098;48.184;16.298;2023-05-02T11:11:45;99683.19;;;14.90;82.96
43503;BME280;29098;48.184;16.298;2023-05-02T11:14:33;99687.94;;;15.28;83.31
43503;BME280;29098;48.184;16.298;2023-05-02T11:19:24;99664.25;;;15.13;82.03
43503;BME280;29098;48.184;16.298;2023-05-02T11:21:50;99696.13;;;15.33;82.53
43503;BME280;29098;48.184;16.298;2023-05-02T11:24:40;99678.75;;;15.31;81.49
43503;BME280;29098;48.184;16.298;2023-05-02T11:30:00;99697.53;;;15.09;81.00
43503;BME280;29098;48.184;16.298;2023-05-02T11:35:21;99681.78;;;15.21;79.41
43503;BME280;29098;48.184;16.298;2023-05-02T11:38:01;99688.34;;;15.25;79.15
43503;BME280;29098;48.184;16.298;2023-05-02T11:40:28;99658.13;;;15.33;79.77
43503;BME280;29098;48.184;16.298;2023-05-02T11:42:55;99662.41;;;15.27;80.00
43503;BME280;29098;48.184;16.298;2023-05-02T11:45:21;99660.13;;;15.51;80.56
43503;BME280;29098;48.184;16.298;2023-05-02T11:47:56;99681.81;;;15.41;80.99
43503;BME280;29098;48.184;16.298;2023-05-02T11:50:22;99684.63;;;15.67;80.78
43503;BME280;29098;48.184;16.298;2023-05-02T11:52:50;99662.59;;;15.46;78.64
43503;BME280;29098;48.184;16.298;2023-05-02T11:55:19;99696.06;;;15.87;78.70
43503;BME280;29098;48.184;16.298;2023-05-02T11:57:52;99667.44;;;15.83;76.97
43503;BME280;29098;48.184;16.298;2023-05-02T12:00:18;99663.56;;;15.99;76.75
43503;BME280;29098;48.184;16.298;2023-05-02T12:02:52;99665.53;;;16.10;74.89
43503;BME280;29098;48.184;16.298;2023-05-02T12:05:27;99685.75;;;16.25;74.91
43503;BME280;29098;48.184;16.298;2023-05-02T12:07:57;99653.63;;;16.20;74.38
43503;BME280;29098;48.184;16.298;2023-05-02T12:10:34;99661.03;;;16.18;73.51
43503;BME280;29098;48.184;16.298;2023-05-02T12:13:05;99664.81;;;16.35;73.62
43503;BME280;29098;48.184;16.298;2023-05-02T12:15:31;99691.22;;;16.37;72.94
43503;BME280;29098;48.184;16.298;2023-05-02T12:17:58;99667.72;;;16.27;72.93
43503;BME280;29098;48.184;16.298;2023-05-02T12:20:24;99681.28;;;16.19;72.53
43503;BME280;29098;48.184;16.298;2023-05-02T12:22:50;99654.53;;;16.00;73.11
43503;BME280;29098;48.184;16.298;2023-05-02T12:25:16;99654.56;;;15.93;73.49
43503;BME280;29098;48.184;16.298;2023-05-02T12:28:01;99688.31;;;15.93;72.46
43503;BME280;29098;48.184;16.298;2023-05-02T12:30:27;99689.13;;;16.00;72.92
43503;BME280;29098;48.184;16.298;2023-05-02T12:32:57;99649.88;;;15.75;73.42
43503;BME280;29098;48.184;16.298;2023-05-02T12:35:23;99689.50;;;15.97;73.79
43503;BME280;29098;48.184;16.298;2023-05-02T12:37:52;99661.72;;;15.93;73.51
43503;BME280;29098;48.184;16.298;2023-05-02T12:40:19;99667.03;;;15.93;72.54
43503;BME280;29098;48.184;16.298;2023-05-02T12:43:03;99680.91;;;16.01;72.17
43503;BME280;29098;48.184;16.298;2023-05-02T12:45:37;99687.03;;;16.09;72.08
43503;BME280;29098;48.184;16.298;2023-05-02T12:48:22;99680.06;;;16.14;71.67
43503;BME280;29098;48.184;16.298;2023-05-02T12:50:51;99663.34;;;15.87;71.76
43503;BME280;29098;48.184;16.298;2023-05-02T12:53:17;99666.22;;;15.99;71.63
43503;BME280;29098;48.184;16.298;2023-05-02T12:56:05;99696.25;;;16.06;71.33
43503;BME280;29098;48.184;16.298;2023-05-02T12:58:45;99683.13;;;16.11;71.64
43503;BME280;29098;48.184;16.298;2023-05-02T13:01:12;99672.75;;;15.96;71.42
43503;BME280;29098;48.184;16.298;2023-05-02T13:03:38;99680.53;;;15.84;72.63
43503;BME280;29098;48.184;16.298;2023-05-02T13:06:06;99680.09;;;16.01;72.24
43503;BME280;29098;48.184;16.298;2023-05-02T13:08:33;99716.66;;;16.19;71.98
43503;BME280;29098;48.184;16.298;2023-05-02T13:10:59;99665.38;;;15.98;72.48
43503;BME280;29098;48.184;16.298;2023-05-02T13:13:25;99698.28;;;16.04;72.20
43503;BME280;29098;48.184;16.298;2023-05-02T13:15:51;99703.81;;;16.09;72.11
43503;BME280;29098;48.184;16.298;2023-05-02T13:18:16;99658.88;;;15.74;72.74
43503;BME280;29098;48.184;16.298;2023-05-02T13:20:42;99676.28;;;15.56;73.66
43503;BME280;29098;48.184;16.298;2023-05-02T13:23:07;99705.06;;;15.86;73.66
43503;BME280;29098;48.184;16.298;2023-05-02T13:25:33;99682.41;;;15.64;74.21
43503;BME280;29098;48.184;16.298;2023-05-02T13:27:59;99708.38;;;15.75;75.12
43503;BME280;29098;48.184;16.298;2023-05-02T13:30:25;99704.69;;;15.76;74.75
43503;BME280;29098;48.184;16.298;2023-05-02T13:32:51;99675.22;;;15.78;74.25
43503;BME280;29098;48.184;16.298;2023-05-02T13:35:17;99709.94;;;15.89;74.58
43503;BME280;29098;48.184;16.298;2023-05-02T13:37:42;99687.47;;;15.85;75.39